Juergen K — PBKV — position and weather

sailwx.info

Track history (hours):
 
Tides and Currents Weather Stations Pressure Air Temp Water Temp Dewpoint Dewpoint Depression Visibility Wind Speed Wind Dir Waves Ship Positions

Juergen K

Last reported at 2015-Feb-28 14:28 UTC. Time now 2015-Mar-01 12:34 UTC.
Position N 40°59' E 003°29'.

Length 89 m; draft 4.7 m.

Type: Cargo ship. MMSI: 244329000.

Date/timePositionNaut miles runAvg speedWind from/ knotsBaromVisibWave heightAir tempDewpointWater temp
2015-Feb-28 14:28N 40°59' E 003°29'9 9.5
2015-Feb-28 13:28N 41°02' E 003°17'9 9.0
2015-Feb-28 12:28N 41°04' E 003°06'11 9.0
2015-Feb-28 11:13N 41°07' E 002°51'7 8.8
2015-Feb-28 10:28N 41°09' E 002°43'12 9.3
2015-Feb-28 09:12N 41°12' E 002°28'15 0.4
2015-Feb-26 21:33N 41°20' E 002°10'5 4.6
2015-Feb-26 20:28N 41°15' E 002°10'9 9.7
2015-Feb-26 19:32N 41°07' E 002°04'1111.2
2015-Feb-26 18:33N 40°57' E 001°58'1211.1
2015-Feb-26 17:27N 40°46' E 001°50'1010.4
2015-Feb-26 16:32N 40°37' E 001°45'1010.5
2015-Feb-26 15:33N 40°28' E 001°39'1110.7
2015-Feb-26 14:33N 40°18' E 001°33'1010.1
2015-Feb-26 13:33N 40°09' E 001°27'1010.0
2015-Feb-26 12:33N 40°01' E 001°21'1010.2
2015-Feb-26 11:33N 39°52' E 001°14'14010.6
2015-Feb-25 22:15N 37°50' W 000°16'710.4
2015-Feb-25 21:33N 37°44' W 000°21'1010.2
2015-Feb-25 20:33N 37°36' W 000°29'9 9.4
2015-Feb-25 19:33N 37°31' W 000°39'1110.7
2015-Feb-25 18:33N 37°32' W 000°52'5 3.9
2015-Feb-25 17:24N 37°34' W 000°57'0 0.0
2015-Feb-25 14:12N 37°34' W 000°57'0 0.0
2015-Feb-25 09:31N 37°34' W 000°57'  
2015-Feb-22 11:33N 37°32' W 000°60'9 8.9
2015-Feb-22 10:33N 37°32' W 000°49'9 9.3
2015-Feb-22 09:33N 37°33' W 000°37'10 9.6
2015-Feb-22 08:33N 37°40' W 000°29'1110.3
2015-Feb-22 07:32N 37°49' W 000°22'1010.2
2015-Feb-22 06:33N 37°57' W 000°15'130 9.3
2015-Feb-21 16:34N 39°45' E 001°19'10 9.8
2015-Feb-21 15:33N 39°53' E 001°27'10 9.8
2015-Feb-21 14:33N 40°01' E 001°34'10 9.6
2015-Feb-21 13:33N 40°09' E 001°42'9 9.5
2015-Feb-21 12:33N 40°16' E 001°49'10 9.7
2015-Feb-21 11:34N 40°24' E 001°56'10 9.6
2015-Feb-21 10:33N 40°32' E 002°03'10 9.7
2015-Feb-21 09:33N 40°40' E 002°10'1010.0
2015-Feb-21 08:33N 40°48' E 002°18'1110.4
2015-Feb-21 07:32N 40°57' E 002°26'9 9.6
2015-Feb-21 06:33N 41°05' E 002°34'78 9.4
2015-Feb-20 22:14N 42°13' E 003°25'8 8.6
2015-Feb-20 21:15N 42°21' E 003°28'10 8.5
2015-Feb-20 20:05N 42°30' E 003°32'5 8.2
2015-Feb-20 19:29N 42°35' E 003°33'9 8.7
2015-Feb-20 18:24N 42°44' E 003°36'8 9.0
2015-Feb-20 17:30N 42°52' E 003°39'9 9.1
2015-Feb-20 16:28N 43°01' E 003°42'8 9.3
2015-Feb-20 15:33N 43°10' E 003°45'12 9.4
2015-Feb-20 14:14N 43°22' E 003°46'3 0.9
2015-Feb-20 11:12N 43°24' E 003°43'0 0.0
2015-Feb-20 09:05N 43°24' E 003°43'0 0.0
2015-Feb-20 08:09N 43°24' E 003°43'0 0.0
2015-Feb-19 19:33N 43°24' E 003°43'0 0.0
2015-Feb-19 18:33N 43°24' E 003°43'0 0.0
2015-Feb-19 17:23N 43°24' E 003°43'0 0.0
2015-Feb-19 16:30N 43°24' E 003°43'3 2.9
2015-Feb-19 15:19N 43°22' E 003°47'910.0
2015-Feb-19 14:22N 43°13' E 003°49'911.3
2015-Feb-19 13:32N 43°04' E 003°45'1411.3
2015-Feb-19 12:20N 42°51' E 003°40'911.0
2015-Feb-19 11:31N 42°42' E 003°36'1311.2
2015-Feb-19 10:23N 42°30' E 003°32'911.4
2015-Feb-19 09:34N 42°21' E 003°29'8510.0
2015-Feb-19 01:06N 41°06' E 002°36'610.2
2015-Feb-19 00:33N 41°01' E 002°32'10 9.8
2015-Feb-18 23:33N 40°53' E 002°24'10 9.7
2015-Feb-18 22:34N 40°45' E 002°17'10 9.6
2015-Feb-18 21:33N 40°37' E 002°10'9 9.2
2015-Feb-18 20:33N 40°29' E 002°04'9 9.2
2015-Feb-18 19:33N 40°22' E 001°57'9 8.5
2015-Feb-18 18:33N 40°15' E 001°50'8 7.9
2015-Feb-18 17:33N 40°08' E 001°45'7 7.4
2015-Feb-18 16:33N 40°02' E 001°39'7 7.3
2015-Feb-18 15:33N 39°56' E 001°34'7 7.1
2015-Feb-18 14:33N 39°50' E 001°28'  
Track history (hours):
 
Tides and Currents Weather Stations Pressure Air Temp Water Temp Dewpoint Dewpoint Depression Visibility Wind Speed Wind Dir Waves Ship Positions

Juergen K

Last reported at 2015-Feb-28 14:28 UTC. Time now 2015-Mar-01 12:34 UTC.
Position N 40°59' E 003°29'.

Length 89 m; draft 4.7 m.

Type: Cargo ship. MMSI: 244329000.

Date/timePositionNaut miles runAvg speedWind from/ knotsBaromVisibWave heightAir tempDewpointWater temp
2015-Feb-28 14:28N 40°59' E 003°29'9 9.5
2015-Feb-28 13:28N 41°02' E 003°17'9 9.0
2015-Feb-28 12:28N 41°04' E 003°06'11 9.0
2015-Feb-28 11:13N 41°07' E 002°51'7 8.8
2015-Feb-28 10:28N 41°09' E 002°43'12 9.3
2015-Feb-28 09:12N 41°12' E 002°28'15 0.4
2015-Feb-26 21:33N 41°20' E 002°10'5 4.6
2015-Feb-26 20:28N 41°15' E 002°10'9 9.7
2015-Feb-26 19:32N 41°07' E 002°04'1111.2
2015-Feb-26 18:33N 40°57' E 001°58'1211.1
2015-Feb-26 17:27N 40°46' E 001°50'1010.4
2015-Feb-26 16:32N 40°37' E 001°45'1010.5
2015-Feb-26 15:33N 40°28' E 001°39'1110.7
2015-Feb-26 14:33N 40°18' E 001°33'1010.1
2015-Feb-26 13:33N 40°09' E 001°27'1010.0
2015-Feb-26 12:33N 40°01' E 001°21'1010.2
2015-Feb-26 11:33N 39°52' E 001°14'14010.6
2015-Feb-25 22:15N 37°50' W 000°16'710.4
2015-Feb-25 21:33N 37°44' W 000°21'1010.2
2015-Feb-25 20:33N 37°36' W 000°29'9 9.4
2015-Feb-25 19:33N 37°31' W 000°39'1110.7
2015-Feb-25 18:33N 37°32' W 000°52'5 3.9
2015-Feb-25 17:24N 37°34' W 000°57'0 0.0
2015-Feb-25 14:12N 37°34' W 000°57'0 0.0
2015-Feb-25 09:31N 37°34' W 000°57'  
2015-Feb-22 11:33N 37°32' W 000°60'9 8.9
2015-Feb-22 10:33N 37°32' W 000°49'9 9.3
2015-Feb-22 09:33N 37°33' W 000°37'10 9.6
2015-Feb-22 08:33N 37°40' W 000°29'1110.3
2015-Feb-22 07:32N 37°49' W 000°22'1010.2
2015-Feb-22 06:33N 37°57' W 000°15'130 9.3
2015-Feb-21 16:34N 39°45' E 001°19'10 9.8
2015-Feb-21 15:33N 39°53' E 001°27'10 9.8
2015-Feb-21 14:33N 40°01' E 001°34'10 9.6
2015-Feb-21 13:33N 40°09' E 001°42'9 9.5
2015-Feb-21 12:33N 40°16' E 001°49'10 9.7
2015-Feb-21 11:34N 40°24' E 001°56'10 9.6
2015-Feb-21 10:33N 40°32' E 002°03'10 9.7
2015-Feb-21 09:33N 40°40' E 002°10'1010.0
2015-Feb-21 08:33N 40°48' E 002°18'1110.4
2015-Feb-21 07:32N 40°57' E 002°26'9 9.6
2015-Feb-21 06:33N 41°05' E 002°34'78 9.4
2015-Feb-20 22:14N 42°13' E 003°25'8 8.6
2015-Feb-20 21:15N 42°21' E 003°28'10 8.5
2015-Feb-20 20:05N 42°30' E 003°32'5 8.2
2015-Feb-20 19:29N 42°35' E 003°33'9 8.7
2015-Feb-20 18:24N 42°44' E 003°36'8 9.0
2015-Feb-20 17:30N 42°52' E 003°39'9 9.1
2015-Feb-20 16:28N 43°01' E 003°42'8 9.3
2015-Feb-20 15:33N 43°10' E 003°45'12 9.4
2015-Feb-20 14:14N 43°22' E 003°46'3 0.9
2015-Feb-20 11:12N 43°24' E 003°43'0 0.0
2015-Feb-20 09:05N 43°24' E 003°43'0 0.0
2015-Feb-20 08:09N 43°24' E 003°43'0 0.0
2015-Feb-19 19:33N 43°24' E 003°43'0 0.0
2015-Feb-19 18:33N 43°24' E 003°43'0 0.0
2015-Feb-19 17:23N 43°24' E 003°43'0 0.0
2015-Feb-19 16:30N 43°24' E 003°43'3 2.9
2015-Feb-19 15:19N 43°22' E 003°47'910.0
2015-Feb-19 14:22N 43°13' E 003°49'911.3
2015-Feb-19 13:32N 43°04' E 003°45'1411.3
2015-Feb-19 12:20N 42°51' E 003°40'911.0
2015-Feb-19 11:31N 42°42' E 003°36'1311.2
2015-Feb-19 10:23N 42°30' E 003°32'911.4
2015-Feb-19 09:34N 42°21' E 003°29'8510.0
2015-Feb-19 01:06N 41°06' E 002°36'610.2
2015-Feb-19 00:33N 41°01' E 002°32'10 9.8
2015-Feb-18 23:33N 40°53' E 002°24'10 9.7
2015-Feb-18 22:34N 40°45' E 002°17'10 9.6
2015-Feb-18 21:33N 40°37' E 002°10'9 9.2
2015-Feb-18 20:33N 40°29' E 002°04'9 9.2
2015-Feb-18 19:33N 40°22' E 001°57'9 8.5
2015-Feb-18 18:33N 40°15' E 001°50'8 7.9
2015-Feb-18 17:33N 40°08' E 001°45'7 7.4
2015-Feb-18 16:33N 40°02' E 001°39'7 7.3
2015-Feb-18 15:33N 39°56' E 001°34'7 7.1
2015-Feb-18 14:33N 39°50' E 001°28'  

Dump ship's entire track history